Time;durP1;ratioP1;P1;durP2;ratioP2;P2;SDS_P1;SDS_P2;PMS_P1;PMS_P2;Temp;Humidity;BMP_temperature;BMP_pressure;BME280_temperature;BME280_humidity;BME280_pressure;Samples;Min_cycle;Max_cycle;Signal;HPM_P1;HPM_P2
2021/07/03 00:01:35;;;;;;;12.65;8.03;;;;;;;19.32;100.00;98358.97;1712927;83;20922;-61
2021/07/03 00:08:00;;;;;;;12.60;7.15;;;;;;;19.15;100.00;98347.75;1681535;85;20920;-63
2021/07/03 00:14:27;;;;;;;9.40;4.95;;;;;;;19.00;100.00;98350.58;1681673;84;20974;-63
2021/07/03 00:20:55;;;;;;;4.85;3.65;;;;;;;18.73;100.00;98336.24;1691071;85;20921;-62
2021/07/03 00:27:20;;;;;;;4.08;3.08;;;;;;;18.54;100.00;98353.85;1682220;84;20924;-61
2021/07/03 00:33:45;;;;;;;11.03;4.67;;;;;;;18.77;100.00;98476.61;1691594;84;21303;-61
2021/07/03 00:40:14;;;;;;;10.30;4.58;;;;;;;17.43;100.00;98510.38;1691070;85;20904;-58
2021/07/03 01:10:00;;;;;;;4.95;3.70;;;;;;;16.74;100.00;98411.02;1735034;82;22678;-59
2021/07/03 01:12:27;;;;;;;7.85;4.15;;;;;;;16.66;100.00;98408.01;1666538;84;20920;-58
2021/07/03 01:14:54;;;;;;;8.30;4.10;;;;;;;16.62;100.00;98401.63;1639700;86;21243;-58
2021/07/03 01:17:22;;;;;;;5.87;3.50;;;;;;;16.61;100.00;98396.52;1665457;84;21011;-58
2021/07/03 01:19:51;;;;;;;7.90;5.20;;;;;;;16.58;100.00;98393.90;1666087;86;21342;-58
2021/07/03 01:22:19;;;;;;;6.33;4.20;;;;;;;16.59;100.00;98386.59;1666232;86;20936;-58
2021/07/03 01:24:47;;;;;;;5.45;4.60;;;;;;;16.55;100.00;98378.86;1666618;86;21481;-58
2021/07/03 01:27:15;;;;;;;5.75;4.50;;;;;;;16.51;100.00;98370.56;1666402;86;21145;-58
2021/07/03 01:29:42;;;;;;;6.55;4.60;;;;;;;16.46;100.00;98366.14;1666624;84;21464;-58
2021/07/03 01:32:10;;;;;;;4.33;3.90;;;;;;;16.36;100.00;98365.09;1639419;86;21010;-58
2021/07/03 01:34:37;;;;;;;8.13;4.90;;;;;;;16.29;100.00;98355.31;1666669;86;20923;-59
2021/07/03 01:37:05;;;;;;;12.05;4.58;;;;;;;16.25;100.00;98357.88;1666335;85;20967;-59
2021/07/03 01:39:34;;;;;;;33.40;4.87;;;;;;;16.19;100.00;98352.94;1666247;86;21913;-58
2021/07/03 01:42:04;;;;;;;8.68;5.42;;;;;;;16.16;100.00;98350.88;1666424;86;21002;-58
2021/07/03 01:44:34;;;;;;;9.33;5.03;;;;;;;16.12;100.00;98356.68;1666252;86;21005;-58
2021/07/03 01:47:02;;;;;;;5.50;4.60;;;;;;;16.10;100.00;98355.66;1639633;86;20892;-59
2021/07/03 01:49:37;;;;;;;8.40;5.17;;;;;;;16.09;100.00;98358.11;1666571;86;22249;-58
2021/07/03 02:00:18;;;;;;;5.20;4.70;;;;;;;15.80;100.00;98362.80;1953685;72;21867;-59
2021/07/03 02:02:49;;;;;;;5.17;4.67;;;;;;;15.84;100.00;98361.85;1903467;74;20931;-58
2021/07/03 02:05:18;;;;;;;8.00;5.12;;;;;;;15.88;100.00;98362.59;1902445;75;21095;-58
2021/07/03 02:07:45;;;;;;;8.43;4.03;;;;;;;15.89;100.00;98356.84;1903493;75;20826;-59
2021/07/03 02:10:13;;;;;;;4.47;3.92;;;;;;;15.93;100.00;98354.31;1843498;77;20897;-58
2021/07/03 02:12:41;;;;;;;5.25;4.33;;;;;;;15.95;100.00;98347.47;1848829;77;21004;-58
2021/07/03 02:15:10;;;;;;;7.75;4.30;;;;;;;15.99;100.00;98351.11;1846984;77;21345;-58
2021/07/03 02:17:38;;;;;;;4.87;3.95;;;;;;;16.01;100.00;98350.24;1848567;77;21678;-58
2021/07/03 02:20:09;;;;;;;4.35;3.80;;;;;;;16.06;100.00;98349.28;1847722;77;20901;-58
2021/07/03 02:22:43;;;;;;;6.70;3.92;;;;;;;16.05;100.00;98343.09;1848383;77;20811;-58
2021/07/03 02:25:13;;;;;;;4.83;3.75;;;;;;;16.03;100.00;98325.58;1848684;77;20937;-58
2021/07/03 02:27:40;;;;;;;;;;;;;;;16.03;100.00;98327.72;1851517;77;20924;-58
2021/07/03 02:30:12;;;;;;;4.20;3.33;;;;;;;16.02;100.00;98315.84;1848448;77;21118;-58
2021/07/03 02:32:40;;;;;;;4.87;3.55;;;;;;;16.01;100.00;98314.27;1848546;77;20889;-58
2021/07/03 02:35:10;;;;;;;5.35;3.85;;;;;;;16.02;100.00;98313.96;1848631;76;20937;-59
2021/07/03 02:37:37;;;;;;;5.85;4.00;;;;;;;16.06;100.00;98312.75;1849023;77;21328;-58
2021/07/03 02:40:08;;;;;;;3.80;3.33;;;;;;;16.06;100.00;98325.72;1848705;77;21127;-58
2021/07/03 02:42:37;;;;;;;4.83;3.83;;;;;;;16.07;100.00;98339.50;1848643;77;21695;-59
2021/07/03 02:45:06;;;;;;;4.65;4.03;;;;;;;16.11;100.00;98348.33;1849001;76;20869;-58
2021/07/03 02:47:34;;;;;;;7.40;3.72;;;;;;;16.14;100.00;98364.72;1848409;77;20957;-58
2021/07/03 02:50:08;;;;;;;5.62;3.83;;;;;;;16.19;100.00;98359.70;1848749;77;20877;-58
2021/07/03 02:52:34;;;;;;;4.78;3.30;;;;;;;16.23;100.00;98370.14;1848508;77;21410;-59
2021/07/03 02:55:02;;;;;;;4.78;3.95;;;;;;;16.27;100.00;98373.81;1848752;77;21772;-60
2021/07/03 02:57:29;;;;;;;6.28;5.03;;;;;;;16.31;100.00;98377.45;1848699;77;21375;-59
2021/07/03 02:59:56;;;;;;;3.92;3.58;;;;;;;16.34;100.00;98380.89;1844906;76;20851;-59
2021/07/03 03:02:23;;;;;;;4.43;3.77;;;;;;;16.34;100.00;98388.20;1844165;76;21361;-59
2021/07/03 03:04:50;;;;;;;4.53;3.75;;;;;;;16.36;100.00;98385.41;1843936;76;21467;-59
2021/07/03 03:07:18;;;;;;;;;;;;;;;16.37;100.00;98385.66;1846599;76;21361;-59
2021/07/03 03:09:45;;;;;;;4.30;3.90;;;;;;;16.37;100.00;98388.94;1844052;76;20374;-59
2021/07/03 03:12:13;;;;;;;7.40;4.17;;;;;;;16.42;100.00;98386.84;1843462;77;20859;-59
2021/07/03 03:14:41;;;;;;;4.45;2.98;;;;;;;16.47;100.00;98382.62;1843367;77;20938;-59
2021/07/03 03:17:08;;;;;;;4.80;3.30;;;;;;;16.48;100.00;98385.55;1843548;76;21453;-59
2021/07/03 03:19:35;;;;;;;5.83;2.95;;;;;;;16.45;100.00;98381.34;1843314;77;21088;-59
2021/07/03 03:22:03;;;;;;;3.85;3.42;;;;;;;16.49;100.00;98379.03;1843139;77;21405;-59
2021/07/03 03:24:30;;;;;;;;;;;;;;;16.50;100.00;98367.07;1845959;76;21025;-59
2021/07/03 03:26:57;;;;;;;4.03;3.27;;;;;;;16.54;100.00;98358.33;1843382;77;20394;-59
2021/07/03 04:23:26;;;;;;;6.03;2.77;;;;;;;18.11;100.00;98292.62;1852360;77;21934;-59
2021/07/03 04:25:53;;;;;;;3.80;3.05;;;;;;;17.96;100.00;98311.68;1818512;78;21455;-59
2021/07/03 04:28:22;;;;;;;4.40;3.45;;;;;;;17.87;100.00;98320.45;1812279;78;21114;-59
2021/07/03 04:50:23;;;;;;;3.12;2.55;;;;;;;18.54;100.00;98329.40;1791574;79;20822;-59
2021/07/03 04:52:50;;;;;;;2.95;2.75;;;;;;;18.88;100.00;98333.46;1813649;79;21399;-59
2021/07/03 04:55:17;;;;;;;5.85;2.87;;;;;;;19.20;100.00;98339.94;1787954;79;21429;-59
2021/07/03 04:57:43;;;;;;;2.98;2.37;;;;;;;19.31;100.00;98342.44;1780413;79;20987;-60
2021/07/03 05:00:13;;;;;;;3.45;2.60;;;;;;;19.43;100.00;98340.28;1752710;80;22236;-60
2021/07/03 05:02:40;;;;;;;2.60;2.30;;;;;;;19.34;100.00;98338.23;1781069;79;20869;-60
2021/07/03 05:05:08;;;;;;;2.35;2.10;;;;;;;19.48;100.00;98345.48;1781104;80;21350;-59
2021/07/03 05:07:37;;;;;;;3.42;2.30;;;;;;;19.38;100.00;98347.31;1781158;80;20870;-59
2021/07/03 05:10:07;;;;;;;2.25;2.08;;;;;;;19.47;100.00;98349.33;1780632;79;20837;-59
2021/07/03 05:12:34;;;;;;;;;;;;;;;19.33;100.00;98349.69;1760148;80;21129;-59
2021/07/03 05:15:01;;;;;;;2.25;2.05;;;;;;;19.24;100.00;98354.45;1750146;82;20152;-59
2021/07/03 05:17:28;;;;;;;3.50;2.40;;;;;;;19.15;100.00;98359.98;1750071;82;20979;-59
2021/07/03 05:19:55;;;;;;;;;;;;;;;19.09;100.00;98376.31;1752712;81;20935;-59
2021/07/03 05:22:24;;;;;;;3.37;2.80;;;;;;;19.10;100.00;98377.89;1755778;81;20146;-59
2021/07/03 05:24:51;;;;;;;2.30;2.10;;;;;;;19.13;100.00;98386.72;1757740;81;21129;-59
2021/07/03 05:27:17;;;;;;;2.72;2.50;;;;;;;18.90;100.00;98379.56;1757523;81;21445;-59
2021/07/03 05:29:45;;;;;;;3.67;2.85;;;;;;;18.81;100.00;98381.04;1757793;81;25280;-59
2021/07/03 05:32:12;;;;;;;4.35;3.15;;;;;;;18.60;100.00;98375.63;1730994;80;21524;-59
2021/07/03 05:34:38;;;;;;;3.25;2.95;;;;;;;18.55;100.00;98391.35;1754952;81;20968;-59
2021/07/03 05:37:06;;;;;;;4.70;3.27;;;;;;;18.47;100.00;98391.67;1736917;82;21199;-59
2021/07/03 05:39:33;;;;;;;6.35;3.42;;;;;;;18.48;100.00;98388.38;1736691;82;27925;-59
2021/07/03 05:42:01;;;;;;;3.53;3.23;;;;;;;18.41;100.00;98387.55;1736410;82;21509;-59
2021/07/03 05:44:27;;;;;;;4.37;3.90;;;;;;;18.41;100.00;98387.55;1737218;82;21765;-59
2021/07/03 05:46:54;;;;;;;4.12;3.72;;;;;;;18.51;100.00;98392.57;1736572;82;21213;-59
2021/07/03 05:49:20;;;;;;;4.33;3.40;;;;;;;18.59;100.00;98392.25;1723720;81;21516;-59
2021/07/03 05:51:48;;;;;;;6.97;3.75;;;;;;;18.50;100.00;98387.48;1728292;82;21406;-58
2021/07/03 10:35:52;;;;;;;2.33;2.12;;;;;;;26.29;89.02;98435.72;1742380;79;20944;-61
2021/07/03 10:38:30;;;;;;;1.72;1.62;;;;;;;25.99;90.61;98434.56;1742844;79;21066;-61
2021/07/03 10:41:20;;;;;;;1.65;1.55;;;;;;;26.41;86.35;98432.63;1738840;81;21118;-61
2021/07/03 10:44:08;;;;;;;2.08;1.90;;;;;;;26.56;91.27;98433.49;1718499;82;20955;-63
2021/07/03 10:46:39;;;;;;;1.98;1.77;;;;;;;26.38;93.92;98436.13;1728011;82;21474;-63
2021/07/03 10:49:14;;;;;;;2.08;1.60;;;;;;;25.91;93.56;98434.33;1716513;81;20984;-63
2021/07/03 10:51:48;;;;;;;1.77;1.67;;;;;;;25.95;92.42;98431.80;1724284;81;20932;-62
2021/07/03 10:54:28;;;;;;;4.55;1.95;;;;;;;26.54;91.16;98434.47;1742015;81;21111;-62
2021/07/03 10:57:07;;;;;;;1.98;1.87;;;;;;;26.28;93.24;98430.78;1731822;80;20986;-61
2021/07/03 10:59:39;;;;;;;3.80;1.70;;;;;;;25.91;88.52;98429.61;1742801;80;21023;-62
2021/07/03 11:02:14;;;;;;;3.72;1.52;;;;;;;26.21;94.26;98431.34;1748085;80;20918;-62
2021/07/03 11:04:54;;;;;;;1.87;1.77;;;;;;;26.71;86.99;98432.35;1738483;81;21030;-61
2021/07/03 11:07:32;;;;;;;2.55;1.60;;;;;;;26.22;87.88;98432.93;1747199;80;21076;-62
2021/07/03 11:10:28;;;;;;;1.95;1.60;;;;;;;26.13;84.63;98434.64;1721442;81;21380;-62
2021/07/03 11:12:56;;;;;;;2.83;1.90;;;;;;;25.96;91.10;98436.11;1761795;81;20939;-61
2021/07/03 11:15:25;;;;;;;1.72;1.62;;;;;;;25.98;85.64;98438.49;1742062;81;20946;-62
2021/07/03 11:17:52;;;;;;;3.30;2.00;;;;;;;25.57;91.63;98435.83;1756653;80;20904;-63
2021/07/03 11:20:30;;;;;;;4.57;1.73;;;;;;;25.44;97.28;98437.50;1737532;81;21064;-62
2021/07/03 11:22:58;;;;;;;1.85;1.75;;;;;;;25.55;92.17;98440.91;1742610;81;21021;-62
2021/07/03 11:25:33;;;;;;;2.33;2.12;;;;;;;25.27;92.90;98440.10;1740677;81;21441;-62
2021/07/03 11:28:18;;;;;;;2.00;1.90;;;;;;;24.96;95.88;98433.33;1731543;81;21460;-60
2021/07/03 11:30:47;;;;;;;3.87;2.00;;;;;;;24.99;97.19;98432.56;1734102;81;20983;-62
2021/07/03 11:33:16;;;;;;;2.30;1.70;;;;;;;25.39;97.28;98434.32;1725971;81;21122;-61
2021/07/03 11:35:48;;;;;;;2.45;2.20;;;;;;;25.64;100.00;98427.64;1740401;80;21323;-62
2021/07/03 11:38:15;;;;;;;2.12;1.87;;;;;;;25.61;100.00;98428.41;1740359;81;21044;-62
2021/07/03 11:40:41;;;;;;;2.30;2.10;;;;;;;25.44;97.46;98422.98;1716302;81;20999;-63
2021/07/03 11:43:08;;;;;;;2.62;2.02;;;;;;;25.35;95.23;98423.29;1730417;81;20988;-62
2021/07/03 11:45:37;;;;;;;3.02;1.98;;;;;;;25.31;98.29;98418.96;1726512;81;21799;-62
2021/07/03 11:48:17;;;;;;;1.85;1.75;;;;;;;25.32;97.67;98416.41;1730632;81;20960;-60
2021/07/03 11:50:56;;;;;;;2.50;1.90;;;;;;;25.20;95.99;98414.73;1735492;81;20850;-59
2021/07/03 11:53:27;;;;;;;2.33;1.70;;;;;;;25.21;98.02;98419.08;1723410;81;20972;-60
2021/07/03 11:55:56;;;;;;;1.85;1.75;;;;;;;25.59;93.28;98417.00;1734656;81;21464;-62
2021/07/03 11:58:24;;;;;;;1.67;1.57;;;;;;;26.12;90.11;98412.45;1730949;81;21129;-61
2021/07/03 12:00:54;;;;;;;4.28;1.80;;;;;;;26.13;86.46;98417.36;1738495;81;20980;-61
2021/07/03 12:03:33;;;;;;;1.62;1.52;;;;;;;26.57;82.99;98429.55;1734175;80;20984;-61
2021/07/03 12:06:02;;;;;;;2.35;1.70;;;;;;;26.82;82.18;98432.97;1744955;81;20931;-61
2021/07/03 12:08:38;;;;;;;1.60;1.50;;;;;;;26.44;80.87;98426.34;1739972;81;21524;-61
2021/07/03 12:11:09;;;;;;;3.30;1.98;;;;;;;26.17;88.18;98420.33;1742800;81;21426;-61
2021/07/03 12:13:47;;;;;;;2.35;2.15;;;;;;;25.93;92.96;98423.73;1731615;81;20936;-60
2021/07/03 12:16:14;;;;;;;2.50;2.10;;;;;;;25.68;96.78;98424.34;1731599;81;20991;-60
2021/07/03 12:18:55;;;;;;;2.25;2.05;;;;;;;25.36;97.98;98420.77;1731631;81;20977;-60
2021/07/03 12:21:27;;;;;;;2.40;2.20;;;;;;;25.27;100.00;98416.17;1739755;81;20914;-60
2021/07/03 12:24:01;;;;;;;2.85;2.27;;;;;;;25.25;100.00;98411.63;1737376;81;21119;-60
2021/07/03 12:26:46;;;;;;;2.40;2.10;;;;;;;25.68;100.00;98417.47;1724601;81;20911;-60
2021/07/03 12:29:26;;;;;;;3.35;2.40;;;;;;;26.04;94.87;98422.63;1734325;81;21048;-60
2021/07/03 12:31:52;;;;;;;7.47;2.35;;;;;;;26.22;89.59;98424.09;1726594;81;20949;-62
2021/07/03 12:34:26;;;;;;;3.05;2.12;;;;;;;26.47;91.75;98422.02;1727820;81;21047;-61
2021/07/03 12:37:03;;;;;;;2.85;2.00;;;;;;;27.04;86.68;98425.53;1731834;81;21089;-61
2021/07/03 12:39:30;;;;;;;2.35;2.15;;;;;;;26.78;86.56;98421.15;1734653;81;20913;-60
2021/07/03 12:42:04;;;;;;;4.30;1.90;;;;;;;26.76;86.44;98423.53;1747926;81;21034;-62
2021/07/03 12:44:35;;;;;;;2.35;2.15;;;;;;;26.14;87.88;98418.36;1742069;81;21510;-62
2021/07/03 12:47:07;;;;;;;2.42;2.05;;;;;;;25.65;92.15;98419.02;1759265;81;21416;-62
2021/07/03 12:49:45;;;;;;;6.53;2.62;;;;;;;25.34;97.00;98423.09;1758131;81;21066;-61
2021/07/03 12:52:13;;;;;;;2.50;2.30;;;;;;;25.26;98.35;98420.09;1749452;81;20892;-61
2021/07/03 12:54:42;;;;;;;4.08;2.05;;;;;;;25.11;100.00;98419.16;1749671;81;20982;-60
2021/07/03 12:57:08;;;;;;;3.08;2.30;;;;;;;24.93;100.00;98419.55;1749854;81;20995;-60
2021/07/03 12:59:43;;;;;;;3.22;2.60;;;;;;;24.81;100.00;98415.12;1755542;81;21050;-59
2021/07/03 13:02:13;;;;;;;4.22;2.60;;;;;;;24.64;100.00;98423.95;1742839;81;21112;-62
2021/07/03 13:04:47;;;;;;;4.78;2.90;;;;;;;24.37;100.00;98425.38;1743231;81;20916;-62
2021/07/03 13:07:15;;;;;;;3.65;2.55;;;;;;;24.38;100.00;98424.22;1711420;83;21014;-61
2021/07/03 13:09:46;;;;;;;5.97;3.25;;;;;;;24.48;100.00;98420.84;1719665;83;21358;-61
2021/07/03 13:12:10;;;;;;;4.15;2.77;;;;;;;24.60;100.00;98420.59;1705328;82;20973;-61
2021/07/03 13:14:37;;;;;;;2.60;2.40;;;;;;;24.61;100.00;98418.63;1714482;83;21123;-61
2021/07/03 13:17:03;;;;;;;3.27;2.77;;;;;;;24.87;100.00;98414.22;1709277;82;21480;-61
2021/07/03 13:19:30;;;;;;;5.53;3.15;;;;;;;25.15;100.00;98417.80;1713022;82;20964;-62
2021/07/03 13:21:57;;;;;;;2.58;2.37;;;;;;;25.63;100.00;98412.33;1709259;82;21055;-61
2021/07/03 13:24:24;;;;;;;3.08;2.87;;;;;;;25.03;100.00;98407.30;1709755;83;21228;-61
2021/07/03 13:26:50;;;;;;;4.22;3.25;;;;;;;25.26;100.00;98406.36;1706024;82;21867;-61
2021/07/03 13:29:17;;;;;;;3.62;2.60;;;;;;;25.32;100.00;98416.41;1707540;82;20947;-61
2021/07/03 13:31:43;;;;;;;4.67;2.67;;;;;;;25.27;100.00;98414.80;1711857;83;21482;-62
2021/07/03 13:34:10;;;;;;;2.77;2.53;;;;;;;25.58;100.00;98401.11;1713934;83;20964;-62
2021/07/03 13:36:36;;;;;;;4.33;2.50;;;;;;;25.42;100.00;98401.37;1712766;83;21150;-62
2021/07/03 13:39:04;;;;;;;3.35;3.00;;;;;;;25.51;100.00;98412.05;1726447;81;21120;-61
2021/07/03 13:41:30;;;;;;;;;;;;;;;25.71;100.00;98407.67;1743098;81;20991;-61
2021/07/03 13:43:57;;;;;;;3.87;3.10;;;;;;;25.95;100.00;98410.41;1734085;82;20080;-60
2021/07/03 13:46:24;;;;;;;3.17;2.22;;;;;;;25.79;100.00;98413.41;1728572;81;20953;-60
2021/07/03 13:48:51;;;;;;;2.90;2.70;;;;;;;25.85;100.00;98414.08;1741712;81;20974;-61
2021/07/03 13:51:17;;;;;;;3.42;2.65;;;;;;;25.93;100.00;98415.49;1751519;81;21187;-60
2021/07/03 13:53:44;;;;;;;3.47;2.53;;;;;;;25.76;100.00;98410.84;1729658;82;21363;-60
2021/07/03 13:56:10;;;;;;;3.30;2.10;;;;;;;25.71;100.00;98415.33;1717783;82;20964;-61
2021/07/03 13:58:37;;;;;;;2.77;2.58;;;;;;;25.31;100.00;98405.23;1719751;82;20912;-60
2021/07/03 14:01:06;;;;;;;2.45;2.25;;;;;;;25.39;100.00;98407.64;1723899;82;21446;-60
2021/07/03 14:03:31;;;;;;;2.58;2.20;;;;;;;25.32;100.00;98412.28;1718716;82;21830;-60
2021/07/03 14:05:58;;;;;;;3.95;2.37;;;;;;;25.58;100.00;98409.35;1724907;82;20968;-60
2021/07/03 14:08:24;;;;;;;3.75;2.83;;;;;;;25.60;100.00;98419.94;1715105;82;21026;-60
2021/07/03 14:10:51;;;;;;;2.67;2.47;;;;;;;25.77;100.00;98426.73;1717770;82;20921;-60
2021/07/03 14:13:17;;;;;;;2.65;2.45;;;;;;;25.84;100.00;98430.31;1746489;81;21374;-60
2021/07/03 14:15:44;;;;;;;2.52;2.30;;;;;;;25.96;99.17;98427.09;1751654;81;21165;-60
2021/07/03 14:18:25;;;;;;;2.75;2.12;;;;;;;25.74;100.00;98424.17;1748768;81;20865;-61
2021/07/03 14:20:47;;;;;;;3.20;2.30;;;;;;;25.79;100.00;98429.30;1751655;81;20900;-60
2021/07/03 14:23:14;;;;;;;3.92;2.42;;;;;;;25.99;100.00;98420.81;1745885;81;20901;-60
2021/07/03 14:25:40;;;;;;;2.85;2.62;;;;;;;26.02;100.00;98429.09;1748358;81;21401;-62
2021/07/03 14:28:07;;;;;;;2.55;2.35;;;;;;;25.96;100.00;98434.73;1739427;81;21102;-61
2021/07/03 14:30:35;;;;;;;4.42;2.87;;;;;;;25.91;100.00;98440.60;1753477;81;21354;-60
2021/07/03 14:33:02;;;;;;;2.72;2.52;;;;;;;25.83;99.56;98444.45;1754135;81;20877;-60
2021/07/03 14:35:28;;;;;;;4.15;2.60;;;;;;;25.59;98.42;98443.11;1751308;81;20960;-60
2021/07/03 14:37:54;;;;;;;2.47;2.27;;;;;;;25.45;99.12;98443.21;1739065;81;21428;-60
2021/07/03 14:40:21;;;;;;;2.85;2.65;;;;;;;25.05;100.00;98438.49;1739887;81;21082;-61
2021/07/03 14:42:47;;;;;;;4.35;2.20;;;;;;;25.01;100.00;98433.55;1750847;81;20888;-61
2021/07/03 14:45:14;;;;;;;2.72;2.30;;;;;;;25.05;100.00;98428.89;1747699;81;22225;-60
2021/07/03 14:47:40;;;;;;;2.40;2.12;;;;;;;25.01;100.00;98433.55;1734119;81;20915;-60
2021/07/03 14:50:08;;;;;;;5.58;2.42;;;;;;;24.84;100.00;98432.19;1717206;82;20912;-59
2021/07/03 14:52:34;;;;;;;2.95;2.35;;;;;;;24.80;100.00;98432.17;1705606;83;21059;-59
2021/07/03 14:55:01;;;;;;;11.83;3.02;;;;;;;25.11;100.00;98430.70;1711868;83;20961;-59
2021/07/03 14:57:27;;;;;;;4.97;2.60;;;;;;;25.16;100.00;98439.39;1681435;82;21080;-59
2021/07/03 14:59:54;;;;;;;4.75;2.80;;;;;;;25.28;100.00;98438.33;1704994;83;20980;-60
2021/07/03 15:02:20;;;;;;;3.35;2.58;;;;;;;25.53;100.00;98448.73;1717359;83;20952;-61
2021/07/03 15:04:46;;;;;;;2.87;2.50;;;;;;;25.58;100.00;98451.16;1718364;81;21346;-61
2021/07/03 15:07:13;;;;;;;5.37;2.50;;;;;;;25.48;100.00;98445.78;1739540;81;20997;-62
2021/07/03 15:09:39;;;;;;;2.67;2.40;;;;;;;25.44;100.00;98441.62;1750286;81;20865;-61
2021/07/03 15:12:06;;;;;;;2.72;2.35;;;;;;;25.50;100.00;98439.30;1751532;81;21462;-62
2021/07/03 15:14:32;;;;;;;3.37;2.20;;;;;;;25.54;100.00;98436.59;1749229;81;20861;-61
2021/07/03 15:16:59;;;;;;;2.77;2.52;;;;;;;25.41;100.00;98431.98;1751480;81;21743;-61
2021/07/03 15:19:25;;;;;;;2.55;2.35;;;;;;;25.37;100.00;98438.02;1749449;81;20849;-63
2021/07/03 15:21:52;;;;;;;2.60;2.25;;;;;;;25.29;100.00;98439.92;1743173;82;20912;-62
2021/07/03 15:24:20;;;;;;;2.10;2.00;;;;;;;25.46;100.00;98448.11;1751189;81;21425;-62
2021/07/03 15:26:47;;;;;;;3.55;2.20;;;;;;;25.49;98.38;98443.23;1748530;81;20927;-60
2021/07/03 15:29:14;;;;;;;2.37;2.17;;;;;;;25.24;100.00;98440.27;1730807;81;22139;-62
2021/07/03 15:31:41;;;;;;;2.40;2.20;;;;;;;25.35;100.00;98441.14;1720771;82;21012;-64
2021/07/03 15:34:08;;;;;;;2.42;2.22;;;;;;;25.40;100.00;98438.63;1718277;82;20894;-63
2021/07/03 15:36:35;;;;;;;3.27;2.30;;;;;;;25.39;100.00;98436.48;1719473;82;21530;-62
2021/07/03 15:39:01;;;;;;;2.33;2.12;;;;;;;25.45;100.00;98432.78;1718656;83;20941;-63
2021/07/03 15:41:27;;;;;;;3.35;2.40;;;;;;;25.46;100.00;98435.75;1722262;82;21073;-64
2021/07/03 15:43:56;;;;;;;2.40;2.17;;;;;;;25.58;100.00;98440.16;1702404;83;21568;-63
2021/07/03 15:46:22;;;;;;;4.00;2.08;;;;;;;25.43;100.00;98431.81;1720507;82;21419;-63
2021/07/03 15:48:48;;;;;;;3.83;2.40;;;;;;;24.79;100.00;98434.72;1719767;81;20919;-61
2021/07/03 15:51:15;;;;;;;3.70;2.58;;;;;;;24.69;100.00;98427.72;1719062;82;21406;-62
2021/07/03 15:53:41;;;;;;;3.70;2.47;;;;;;;24.97;100.00;98433.52;1723419;82;21117;-61
2021/07/03 15:56:08;;;;;;;4.53;2.60;;;;;;;25.20;100.00;98434.73;1716066;82;21145;-61
2021/07/03 15:58:35;;;;;;;2.87;2.65;;;;;;;25.33;100.00;98440.75;1747132;81;20975;-62
2021/07/03 16:01:01;;;;;;;3.42;2.55;;;;;;;25.12;100.00;98441.31;1748863;81;20929;-61
2021/07/03 16:03:28;;;;;;;5.28;2.33;;;;;;;25.25;100.00;98451.45;1744543;81;21032;-61
2021/07/03 16:05:54;;;;;;;2.95;2.67;;;;;;;25.49;100.00;98461.67;1742179;81;21160;-61
2021/07/03 16:08:21;;;;;;;2.92;2.40;;;;;;;25.35;100.00;98460.95;1744506;80;21670;-62
2021/07/03 16:10:47;;;;;;;2.25;2.05;;;;;;;25.51;100.00;98468.36;1742287;80;21005;-62
2021/07/03 16:13:13;;;;;;;3.33;2.42;;;;;;;25.47;100.00;98466.16;1716865;82;20959;-61
2021/07/03 16:15:40;;;;;;;2.20;2.10;;;;;;;25.27;98.67;98467.56;1737532;80;20887;-63
2021/07/03 16:18:06;;;;;;;2.37;2.17;;;;;;;25.08;100.00;98465.77;1759262;80;21023;-64
2021/07/03 16:20:33;;;;;;;3.02;2.30;;;;;;;25.00;100.00;98460.20;1744446;81;20898;-64
2021/07/03 16:23:00;;;;;;;2.27;2.10;;;;;;;24.76;100.00;98465.62;1734746;81;20962;-62
2021/07/03 16:25:26;;;;;;;3.65;2.27;;;;;;;24.74;100.00;98475.41;1740033;80;21030;-62
2021/07/03 16:27:53;;;;;;;2.42;1.80;;;;;;;24.64;100.00;98478.81;1738140;80;21020;-62
2021/07/03 16:30:20;;;;;;;3.05;2.42;;;;;;;24.52;100.00;98471.05;1737777;80;21714;-62
2021/07/03 16:32:47;;;;;;;3.25;2.40;;;;;;;24.57;100.00;98483.06;1749036;81;21458;-62
2021/07/03 16:35:14;;;;;;;2.65;2.17;;;;;;;24.70;100.00;98486.34;1755166;81;20908;-62
2021/07/03 16:37:41;;;;;;;2.98;2.10;;;;;;;24.47;100.00;98487.81;1745518;81;21425;-63
2021/07/03 16:40:09;;;;;;;3.90;2.05;;;;;;;24.59;100.00;98493.06;1744304;81;20957;-61
2021/07/03 16:42:35;;;;;;;3.37;2.30;;;;;;;24.68;100.00;98489.26;1747979;81;21061;-63
2021/07/03 16:45:04;;;;;;;2.70;2.47;;;;;;;24.55;100.00;98485.39;1743183;81;20848;-61
2021/07/03 16:47:30;;;;;;;3.17;2.20;;;;;;;24.43;100.00;98477.95;1740890;81;20909;-61
2021/07/03 16:49:57;;;;;;;2.30;2.08;;;;;;;24.28;100.00;98490.10;1747854;81;21000;-61
2021/07/03 16:52:23;;;;;;;2.60;2.37;;;;;;;24.34;100.00;98491.93;1720054;82;20861;-61
2021/07/03 16:54:49;;;;;;;2.45;2.25;;;;;;;24.28;100.00;98492.06;1720699;82;21688;-62
2021/07/03 16:57:16;;;;;;;2.60;2.40;;;;;;;24.21;100.00;98486.48;1699199;84;20830;-61
2021/07/03 16:59:42;;;;;;;3.10;2.80;;;;;;;24.10;100.00;98483.56;1697607;84;20923;-60
2021/07/03 17:02:09;;;;;;;3.55;2.67;;;;;;;24.03;100.00;98484.83;1693903;84;21005;-61
2021/07/03 17:04:35;;;;;;;3.00;2.70;;;;;;;23.94;100.00;98494.70;1693703;83;21402;-62
2021/07/03 17:07:03;;;;;;;3.60;2.40;;;;;;;23.58;100.00;98488.62;1698190;84;21089;-61
2021/07/03 17:09:29;;;;;;;2.90;2.60;;;;;;;23.23;100.00;98482.75;1698388;84;20833;-60
2021/07/03 17:11:55;;;;;;;2.35;2.15;;;;;;;22.81;100.00;98487.62;1697544;82;21244;-60
2021/07/03 17:14:22;;;;;;;3.83;2.80;;;;;;;22.46;100.00;98480.29;1679185;83;20993;-60
2021/07/03 17:16:48;;;;;;;3.80;3.08;;;;;;;22.23;100.00;98468.45;1718500;81;21000;-60
2021/07/03 17:19:15;;;;;;;4.75;2.85;;;;;;;22.08;100.00;98473.37;1697063;82;21131;-61
2021/07/03 17:21:41;;;;;;;4.90;2.80;;;;;;;21.92;100.00;98470.66;1679237;84;20898;-60
2021/07/03 17:24:08;;;;;;;5.33;3.10;;;;;;;21.77;100.00;98468.95;1678876;85;20952;-60
2021/07/03 17:26:35;;;;;;;6.67;3.00;;;;;;;21.62;100.00;98467.83;1679705;84;20920;-60
2021/07/03 17:29:01;;;;;;;3.20;2.90;;;;;;;21.49;100.00;98456.80;1683130;84;20936;-61
2021/07/03 17:31:28;;;;;;;4.62;2.75;;;;;;;21.37;100.00;98454.13;1676922;84;21767;-61
2021/07/03 17:33:54;;;;;;;4.67;3.17;;;;;;;21.29;100.00;98452.34;1676275;84;20935;-64
2021/07/03 17:36:21;;;;;;;4.17;2.72;;;;;;;21.19;100.00;98449.02;1681733;84;21007;-63
2021/07/03 17:38:47;;;;;;;3.87;3.50;;;;;;;21.06;100.00;98452.94;1695326;82;21020;-61
2021/07/03 17:41:14;;;;;;;4.15;2.67;;;;;;;20.98;100.00;98460.15;1700077;84;21011;-60
2021/07/03 17:43:40;;;;;;;2.85;2.65;;;;;;;20.80;100.00;98453.98;1723856;83;22126;-61
2021/07/03 17:46:07;;;;;;;3.95;3.20;;;;;;;20.80;100.00;98453.98;1744708;80;21377;-61
2021/07/03 17:48:33;;;;;;;3.00;2.70;;;;;;;20.73;100.00;98463.58;1734894;81;20876;-61
2021/07/03 17:51:00;;;;;;;3.75;3.22;;;;;;;20.66;100.00;98453.83;1747336;81;20925;-59
2021/07/03 17:53:26;;;;;;;3.35;3.05;;;;;;;20.62;100.00;98454.87;1740751;80;21459;-59
2021/07/03 17:55:53;;;;;;;5.97;3.42;;;;;;;20.54;100.00;98449.77;1733253;80;21045;-59
2021/07/03 17:58:19;;;;;;;3.77;3.47;;;;;;;20.47;100.00;98460.46;1738466;82;20973;-59
2021/07/03 18:00:46;;;;;;;5.20;3.08;;;;;;;20.36;100.00;98458.80;1731306;81;20922;-60
2021/07/03 18:03:12;;;;;;;3.92;3.58;;;;;;;20.25;100.00;98461.20;1730486;81;20988;-59
2021/07/03 18:05:39;;;;;;;3.70;3.40;;;;;;;20.17;100.00;98460.77;1744110;81;20955;-61
2021/07/03 18:08:08;;;;;;;4.22;3.25;;;;;;;20.08;100.00;98461.46;1749696;81;21121;-60
2021/07/03 18:10:34;;;;;;;;;;;;;;;19.99;100.00;98464.88;1755077;81;21444;-60
2021/07/03 18:13:00;;;;;;;3.30;2.92;;;;;;;19.88;100.00;98464.56;1742405;80;20096;-60
2021/07/03 18:15:26;;;;;;;6.95;3.50;;;;;;;19.78;100.00;98467.17;1741693;80;20991;-60
2021/07/03 18:17:53;;;;;;;4.42;4.03;;;;;;;19.73;100.00;98472.84;1757885;81;20904;-60
2021/07/03 18:20:20;;;;;;;6.10;3.92;;;;;;;19.65;100.00;98469.08;1747631;81;21437;-61
2021/07/03 18:22:46;;;;;;;6.80;4.20;;;;;;;19.57;100.00;98471.90;1745329;81;21026;-60
2021/07/03 18:25:12;;;;;;;5.92;4.47;;;;;;;19.50;100.00;98468.40;1748046;81;20975;-60
2021/07/03 18:27:40;;;;;;;6.72;4.28;;;;;;;19.43;100.00;98474.39;1742618;81;21023;-60
2021/07/03 18:30:10;;;;;;;4.20;3.80;;;;;;;19.37;100.00;98477.66;1742172;81;21313;-60